sensor_id;sensor_type;location;lat;lon;timestamp;temperature;humidity
15426;DHT22;7812;50.072;7.036;2023-02-03T00:00:17;7.20;99.90
15426;DHT22;7812;50.072;7.036;2023-02-03T00:02:42;7.20;99.90
15426;DHT22;7812;50.072;7.036;2023-02-03T00:05:08;7.10;99.90
15426;DHT22;7812;50.072;7.036;2023-02-03T00:07:36;7.20;99.90
15426;DHT22;7812;50.072;7.036;2023-02-03T00:10:02;7.20;99.90
15426;DHT22;7812;50.072;7.036;2023-02-03T00:12:28;7.10;99.90
15426;DHT22;7812;50.072;7.036;2023-02-03T00:14:54;7.10;99.90
15426;DHT22;7812;50.072;7.036;2023-02-03T00:17:19;7.10;99.90
15426;DHT22;7812;50.072;7.036;2023-02-03T00:19:45;7.10;99.90
15426;DHT22;7812;50.072;7.036;2023-02-03T00:22:11;7.00;99.90
15426;DHT22;7812;50.072;7.036;2023-02-03T00:24:36;7.00;99.90
15426;DHT22;7812;50.072;7.036;2023-02-03T00:27:02;7.00;99.90
15426;DHT22;7812;50.072;7.036;2023-02-03T00:29:28;7.00;99.90
15426;DHT22;7812;50.072;7.036;2023-02-03T00:31:53;7.00;99.90
15426;DHT22;7812;50.072;7.036;2023-02-03T00:34:19;7.10;99.90
15426;DHT22;7812;50.072;7.036;2023-02-03T00:36:45;7.10;99.90
15426;DHT22;7812;50.072;7.036;2023-02-03T00:39:13;7.10;99.90
15426;DHT22;7812;50.072;7.036;2023-02-03T00:41:39;7.10;99.90
15426;DHT22;7812;50.072;7.036;2023-02-03T00:44:06;7.10;99.90
15426;DHT22;7812;50.072;7.036;2023-02-03T00:46:32;7.10;99.90
15426;DHT22;7812;50.072;7.036;2023-02-03T00:49:00;7.10;99.90
15426;DHT22;7812;50.072;7.036;2023-02-03T00:51:26;7.10;99.90
15426;DHT22;7812;50.072;7.036;2023-02-03T00:53:52;7.10;99.90
15426;DHT22;7812;50.072;7.036;2023-02-03T00:56:17;7.10;99.90
15426;DHT22;7812;50.072;7.036;2023-02-03T00:58:43;7.10;99.90
15426;DHT22;7812;50.072;7.036;2023-02-03T01:01:09;7.10;99.90
15426;DHT22;7812;50.072;7.036;2023-02-03T01:03:35;7.10;99.90
15426;DHT22;7812;50.072;7.036;2023-02-03T01:06:15;7.10;99.90
15426;DHT22;7812;50.072;7.036;2023-02-03T01:08:41;7.10;99.90
15426;DHT22;7812;50.072;7.036;2023-02-03T01:11:13;7.10;99.90
15426;DHT22;7812;50.072;7.036;2023-02-03T01:13:39;7.20;99.90
15426;DHT22;7812;50.072;7.036;2023-02-03T01:16:10;7.20;99.90
15426;DHT22;7812;50.072;7.036;2023-02-03T01:18:36;7.20;99.90
15426;DHT22;7812;50.072;7.036;2023-02-03T01:21:16;7.20;99.90
15426;DHT22;7812;50.072;7.036;2023-02-03T01:23:43;7.20;99.90
15426;DHT22;7812;50.072;7.036;2023-02-03T01:26:12;7.20;99.90
15426;DHT22;7812;50.072;7.036;2023-02-03T01:28:38;7.20;99.90
15426;DHT22;7812;50.072;7.036;2023-02-03T01:33:38;7.10;99.90
15426;DHT22;7812;50.072;7.036;2023-02-03T01:36:09;7.10;99.90
15426;DHT22;7812;50.072;7.036;2023-02-03T01:38:36;7.20;99.90
15426;DHT22;7812;50.072;7.036;2023-02-03T01:41:03;7.20;99.90
15426;DHT22;7812;50.072;7.036;2023-02-03T01:43:39;7.20;99.90
15426;DHT22;7812;50.072;7.036;2023-02-03T01:46:30;7.20;99.90
15426;DHT22;7812;50.072;7.036;2023-02-03T01:49:08;7.20;99.90
15426;DHT22;7812;50.072;7.036;2023-02-03T01:51:38;7.20;99.90
15426;DHT22;7812;50.072;7.036;2023-02-03T01:54:07;7.20;99.90
15426;DHT22;7812;50.072;7.036;2023-02-03T01:56:35;7.20;99.90
15426;DHT22;7812;50.072;7.036;2023-02-03T01:59:03;7.30;99.90
15426;DHT22;7812;50.072;7.036;2023-02-03T02:01:31;7.30;99.90
15426;DHT22;7812;50.072;7.036;2023-02-03T02:03:59;7.20;99.90
15426;DHT22;7812;50.072;7.036;2023-02-03T02:06:26;7.30;99.90
15426;DHT22;7812;50.072;7.036;2023-02-03T02:08:52;7.30;99.90
15426;DHT22;7812;50.072;7.036;2023-02-03T02:11:20;7.30;99.90
15426;DHT22;7812;50.072;7.036;2023-02-03T02:13:47;7.30;99.90
15426;DHT22;7812;50.072;7.036;2023-02-03T02:16:15;7.30;99.90
15426;DHT22;7812;50.072;7.036;2023-02-03T02:27:04;7.30;99.90
15426;DHT22;7812;50.072;7.036;2023-02-03T02:43:07;7.30;99.90
15426;DHT22;7812;50.072;7.036;2023-02-03T02:45:48;7.30;99.90
15426;DHT22;7812;50.072;7.036;2023-02-03T02:51:14;7.40;99.90
15426;DHT22;7812;50.072;7.036;2023-02-03T02:53:46;7.30;99.90
15426;DHT22;7812;50.072;7.036;2023-02-03T02:56:15;7.30;99.90
15426;DHT22;7812;50.072;7.036;2023-02-03T02:58:44;7.30;99.90
15426;DHT22;7812;50.072;7.036;2023-02-03T03:01:12;7.40;99.90
15426;DHT22;7812;50.072;7.036;2023-02-03T03:03:38;7.30;99.90
15426;DHT22;7812;50.072;7.036;2023-02-03T03:06:15;7.40;99.90
15426;DHT22;7812;50.072;7.036;2023-02-03T03:11:30;7.30;99.90
15426;DHT22;7812;50.072;7.036;2023-02-03T03:13:57;7.40;99.90
15426;DHT22;7812;50.072;7.036;2023-02-03T03:16:27;7.40;99.90
15426;DHT22;7812;50.072;7.036;2023-02-03T03:18:58;7.30;99.90
15426;DHT22;7812;50.072;7.036;2023-02-03T03:21:27;7.30;99.90
15426;DHT22;7812;50.072;7.036;2023-02-03T03:23:57;7.30;99.90
15426;DHT22;7812;50.072;7.036;2023-02-03T03:27:30;7.30;99.90
15426;DHT22;7812;50.072;7.036;2023-02-03T03:29:42;7.30;99.90
15426;DHT22;7812;50.072;7.036;2023-02-03T03:32:09;7.30;99.90
15426;DHT22;7812;50.072;7.036;2023-02-03T03:34:35;7.30;99.90
15426;DHT22;7812;50.072;7.036;2023-02-03T03:39:55;7.30;99.90
15426;DHT22;7812;50.072;7.036;2023-02-03T03:48:18;7.20;99.90
15426;DHT22;7812;50.072;7.036;2023-02-03T03:50:50;7.20;99.90
15426;DHT22;7812;50.072;7.036;2023-02-03T03:53:17;7.20;99.90
15426;DHT22;7812;50.072;7.036;2023-02-03T03:55:47;7.10;99.90
15426;DHT22;7812;50.072;7.036;2023-02-03T03:58:17;7.10;99.90
15426;DHT22;7812;50.072;7.036;2023-02-03T04:00:45;7.10;99.90
15426;DHT22;7812;50.072;7.036;2023-02-03T04:03:18;7.10;99.90
15426;DHT22;7812;50.072;7.036;2023-02-03T04:05:45;7.10;99.90
15426;DHT22;7812;50.072;7.036;2023-02-03T04:08:11;7.10;99.90
15426;DHT22;7812;50.072;7.036;2023-02-03T04:10:39;7.00;99.90
15426;DHT22;7812;50.072;7.036;2023-02-03T04:13:06;7.00;99.90
15426;DHT22;7812;50.072;7.036;2023-02-03T04:15:32;7.00;99.90
15426;DHT22;7812;50.072;7.036;2023-02-03T04:17:58;7.00;99.90
15426;DHT22;7812;50.072;7.036;2023-02-03T04:20:26;7.00;99.90
15426;DHT22;7812;50.072;7.036;2023-02-03T04:22:52;7.10;99.90
15426;DHT22;7812;50.072;7.036;2023-02-03T04:25:19;7.10;99.90
15426;DHT22;7812;50.072;7.036;2023-02-03T04:27:45;7.10;99.90
15426;DHT22;7812;50.072;7.036;2023-02-03T04:30:12;7.10;99.90
15426;DHT22;7812;50.072;7.036;2023-02-03T04:32:38;7.10;99.90
15426;DHT22;7812;50.072;7.036;2023-02-03T04:35:05;7.10;99.90
15426;DHT22;7812;50.072;7.036;2023-02-03T04:37:31;7.10;99.90
15426;DHT22;7812;50.072;7.036;2023-02-03T04:39:57;7.10;99.90
15426;DHT22;7812;50.072;7.036;2023-02-03T04:42:23;7.10;99.90
15426;DHT22;7812;50.072;7.036;2023-02-03T04:44:49;7.10;99.90
15426;DHT22;7812;50.072;7.036;2023-02-03T04:47:16;7.10;99.90
15426;DHT22;7812;50.072;7.036;2023-02-03T04:49:42;7.10;99.90
15426;DHT22;7812;50.072;7.036;2023-02-03T04:52:08;7.10;99.90
15426;DHT22;7812;50.072;7.036;2023-02-03T04:54:34;7.10;99.90
15426;DHT22;7812;50.072;7.036;2023-02-03T04:57:00;7.10;99.90
15426;DHT22;7812;50.072;7.036;2023-02-03T04:59:26;7.10;99.90
15426;DHT22;7812;50.072;7.036;2023-02-03T05:01:52;7.10;99.90
15426;DHT22;7812;50.072;7.036;2023-02-03T05:04:18;7.10;99.90
15426;DHT22;7812;50.072;7.036;2023-02-03T05:06:43;7.10;99.90
15426;DHT22;7812;50.072;7.036;2023-02-03T05:09:09;7.10;99.90
15426;DHT22;7812;50.072;7.036;2023-02-03T05:11:35;7.10;99.90
15426;DHT22;7812;50.072;7.036;2023-02-03T05:14:01;7.10;99.90
15426;DHT22;7812;50.072;7.036;2023-02-03T05:16:27;7.10;99.90
15426;DHT22;7812;50.072;7.036;2023-02-03T05:18:53;7.10;99.90
15426;DHT22;7812;50.072;7.036;2023-02-03T05:21:19;7.10;99.90
15426;DHT22;7812;50.072;7.036;2023-02-03T05:23:45;7.10;99.90
15426;DHT22;7812;50.072;7.036;2023-02-03T05:26:11;7.20;99.90
15426;DHT22;7812;50.072;7.036;2023-02-03T05:28:37;7.10;99.90
15426;DHT22;7812;50.072;7.036;2023-02-03T05:31:02;7.20;99.90
15426;DHT22;7812;50.072;7.036;2023-02-03T05:33:28;7.20;99.90
15426;DHT22;7812;50.072;7.036;2023-02-03T05:35:54;7.20;99.90
15426;DHT22;7812;50.072;7.036;2023-02-03T05:38:20;7.20;99.90
15426;DHT22;7812;50.072;7.036;2023-02-03T05:40:50;7.20;99.90
15426;DHT22;7812;50.072;7.036;2023-02-03T05:43:51;7.20;99.90
15426;DHT22;7812;50.072;7.036;2023-02-03T05:46:17;7.20;99.90
15426;DHT22;7812;50.072;7.036;2023-02-03T05:48:42;7.20;99.90
15426;DHT22;7812;50.072;7.036;2023-02-03T05:51:08;7.20;99.90
15426;DHT22;7812;50.072;7.036;2023-02-03T05:53:34;7.20;99.90
15426;DHT22;7812;50.072;7.036;2023-02-03T05:55:59;7.20;99.90
15426;DHT22;7812;50.072;7.036;2023-02-03T05:58:25;7.20;99.90
15426;DHT22;7812;50.072;7.036;2023-02-03T06:00:51;7.20;99.90
15426;DHT22;7812;50.072;7.036;2023-02-03T06:03:17;7.20;99.90
15426;DHT22;7812;50.072;7.036;2023-02-03T06:05:42;7.20;99.90
15426;DHT22;7812;50.072;7.036;2023-02-03T06:08:09;7.20;99.90
15426;DHT22;7812;50.072;7.036;2023-02-03T06:10:36;7.20;99.90
15426;DHT22;7812;50.072;7.036;2023-02-03T06:13:12;7.20;99.90
15426;DHT22;7812;50.072;7.036;2023-02-03T06:15:39;7.20;99.90
15426;DHT22;7812;50.072;7.036;2023-02-03T06:18:05;7.20;99.90
15426;DHT22;7812;50.072;7.036;2023-02-03T06:20:31;7.20;99.90
15426;DHT22;7812;50.072;7.036;2023-02-03T06:22:57;7.20;99.90
15426;DHT22;7812;50.072;7.036;2023-02-03T06:25:23;7.20;99.90
15426;DHT22;7812;50.072;7.036;2023-02-03T06:27:49;7.20;99.90
15426;DHT22;7812;50.072;7.036;2023-02-03T06:30:15;7.20;99.90
15426;DHT22;7812;50.072;7.036;2023-02-03T06:32:40;7.20;99.90
15426;DHT22;7812;50.072;7.036;2023-02-03T06:35:08;7.20;99.90
15426;DHT22;7812;50.072;7.036;2023-02-03T06:37:33;7.20;99.90
15426;DHT22;7812;50.072;7.036;2023-02-03T06:40:00;7.20;99.90
15426;DHT22;7812;50.072;7.036;2023-02-03T06:42:26;7.20;99.90
15426;DHT22;7812;50.072;7.036;2023-02-03T06:44:51;7.20;99.90
15426;DHT22;7812;50.072;7.036;2023-02-03T06:47:18;7.20;99.90
15426;DHT22;7812;50.072;7.036;2023-02-03T06:49:43;7.20;99.90
15426;DHT22;7812;50.072;7.036;2023-02-03T06:52:09;7.20;99.90
15426;DHT22;7812;50.072;7.036;2023-02-03T06:54:34;7.20;99.90
15426;DHT22;7812;50.072;7.036;2023-02-03T06:57:00;7.20;99.90
15426;DHT22;7812;50.072;7.036;2023-02-03T06:59:28;7.20;99.90
15426;DHT22;7812;50.072;7.036;2023-02-03T07:01:54;7.30;99.90
15426;DHT22;7812;50.072;7.036;2023-02-03T07:04:19;7.20;99.90
15426;DHT22;7812;50.072;7.036;2023-02-03T07:06:45;7.20;99.90
15426;DHT22;7812;50.072;7.036;2023-02-03T07:09:11;7.20;99.90
15426;DHT22;7812;50.072;7.036;2023-02-03T07:11:37;7.20;99.90
15426;DHT22;7812;50.072;7.036;2023-02-03T07:14:03;7.20;99.90
15426;DHT22;7812;50.072;7.036;2023-02-03T07:16:28;7.20;99.90
15426;DHT22;7812;50.072;7.036;2023-02-03T07:18:55;7.20;99.90
15426;DHT22;7812;50.072;7.036;2023-02-03T07:21:21;7.20;99.90
15426;DHT22;7812;50.072;7.036;2023-02-03T07:23:47;7.20;99.90
15426;DHT22;7812;50.072;7.036;2023-02-03T07:26:13;7.20;99.90
15426;DHT22;7812;50.072;7.036;2023-02-03T07:28:40;7.20;99.90
15426;DHT22;7812;50.072;7.036;2023-02-03T07:31:06;7.20;99.90
15426;DHT22;7812;50.072;7.036;2023-02-03T07:33:35;7.30;99.90
15426;DHT22;7812;50.072;7.036;2023-02-03T07:36:02;7.30;99.90
15426;DHT22;7812;50.072;7.036;2023-02-03T07:38:28;7.30;99.90
15426;DHT22;7812;50.072;7.036;2023-02-03T07:40:54;7.30;99.90
15426;DHT22;7812;50.072;7.036;2023-02-03T07:43:20;7.30;99.90
15426;DHT22;7812;50.072;7.036;2023-02-03T07:45:46;7.30;99.90
15426;DHT22;7812;50.072;7.036;2023-02-03T07:48:11;7.30;99.90
15426;DHT22;7812;50.072;7.036;2023-02-03T07:50:37;7.30;99.90
15426;DHT22;7812;50.072;7.036;2023-02-03T07:53:03;7.40;99.90
15426;DHT22;7812;50.072;7.036;2023-02-03T07:55:29;7.40;99.90
15426;DHT22;7812;50.072;7.036;2023-02-03T07:57:58;7.40;99.90
15426;DHT22;7812;50.072;7.036;2023-02-03T08:00:24;7.40;99.90
15426;DHT22;7812;50.072;7.036;2023-02-03T08:02:50;7.40;99.90
15426;DHT22;7812;50.072;7.036;2023-02-03T08:05:16;7.50;99.90
15426;DHT22;7812;50.072;7.036;2023-02-03T08:07:43;7.50;99.90
15426;DHT22;7812;50.072;7.036;2023-02-03T08:10:10;7.60;99.90
15426;DHT22;7812;50.072;7.036;2023-02-03T08:12:37;7.60;99.90
15426;DHT22;7812;50.072;7.036;2023-02-03T08:15:03;7.60;99.90
15426;DHT22;7812;50.072;7.036;2023-02-03T08:17:29;7.70;99.90
15426;DHT22;7812;50.072;7.036;2023-02-03T08:19:55;7.70;99.90
15426;DHT22;7812;50.072;7.036;2023-02-03T08:22:20;7.80;99.90
15426;DHT22;7812;50.072;7.036;2023-02-03T08:24:46;7.80;99.90
15426;DHT22;7812;50.072;7.036;2023-02-03T08:27:16;7.80;99.90
15426;DHT22;7812;50.072;7.036;2023-02-03T08:29:43;7.90;99.90
15426;DHT22;7812;50.072;7.036;2023-02-03T08:32:10;7.90;99.90
15426;DHT22;7812;50.072;7.036;2023-02-03T08:34:36;7.90;99.90
15426;DHT22;7812;50.072;7.036;2023-02-03T08:37:02;7.90;99.90
15426;DHT22;7812;50.072;7.036;2023-02-03T08:39:27;7.90;99.90
15426;DHT22;7812;50.072;7.036;2023-02-03T08:41:53;7.90;99.90
15426;DHT22;7812;50.072;7.036;2023-02-03T08:44:19;8.00;99.90
15426;DHT22;7812;50.072;7.036;2023-02-03T08:46:49;8.00;99.90
15426;DHT22;7812;50.072;7.036;2023-02-03T08:49:14;8.00;99.90
15426;DHT22;7812;50.072;7.036;2023-02-03T08:51:40;8.00;99.90
15426;DHT22;7812;50.072;7.036;2023-02-03T08:54:06;8.00;99.90
15426;DHT22;7812;50.072;7.036;2023-02-03T08:56:32;8.10;99.90
15426;DHT22;7812;50.072;7.036;2023-02-03T08:59:01;8.10;99.90
15426;DHT22;7812;50.072;7.036;2023-02-03T09:01:26;8.10;99.90
15426;DHT22;7812;50.072;7.036;2023-02-03T09:03:52;8.20;99.90
15426;DHT22;7812;50.072;7.036;2023-02-03T09:06:18;8.20;99.90
15426;DHT22;7812;50.072;7.036;2023-02-03T09:08:44;8.20;99.90
15426;DHT22;7812;50.072;7.036;2023-02-03T09:11:15;8.30;99.90
15426;DHT22;7812;50.072;7.036;2023-02-03T09:13:41;8.30;99.90
15426;DHT22;7812;50.072;7.036;2023-02-03T09:50:04;8.80;99.90
15426;DHT22;7812;50.072;7.036;2023-02-03T09:52:37;8.80;99.90
15426;DHT22;7812;50.072;7.036;2023-02-03T09:58:12;8.90;99.90
15426;DHT22;7812;50.072;7.036;2023-02-03T10:00:55;8.90;99.90
15426;DHT22;7812;50.072;7.036;2023-02-03T10:03:50;9.00;99.90
15426;DHT22;7812;50.072;7.036;2023-02-03T10:06:35;8.90;99.90
15426;DHT22;7812;50.072;7.036;2023-02-03T10:22:54;8.80;99.90
15426;DHT22;7812;50.072;7.036;2023-02-03T10:25:44;8.80;99.90
15426;DHT22;7812;50.072;7.036;2023-02-03T10:28:17;8.80;99.90
15426;DHT22;7812;50.072;7.036;2023-02-03T10:30:47;8.80;99.90
15426;DHT22;7812;50.072;7.036;2023-02-03T10:33:16;8.80;99.90
15426;DHT22;7812;50.072;7.036;2023-02-03T10:35:52;8.90;99.90
15426;DHT22;7812;50.072;7.036;2023-02-03T10:41:17;8.70;99.90
15426;DHT22;7812;50.072;7.036;2023-02-03T10:43:44;8.80;99.90
15426;DHT22;7812;50.072;7.036;2023-02-03T10:46:15;8.80;99.90
15426;DHT22;7812;50.072;7.036;2023-02-03T10:48:41;8.80;99.90
15426;DHT22;7812;50.072;7.036;2023-02-03T10:51:28;8.80;99.90
15426;DHT22;7812;50.072;7.036;2023-02-03T10:53:56;8.80;99.90
15426;DHT22;7812;50.072;7.036;2023-02-03T10:56:33;8.80;99.90
15426;DHT22;7812;50.072;7.036;2023-02-03T10:58:59;8.80;99.90
15426;DHT22;7812;50.072;7.036;2023-02-03T11:01:28;8.80;99.90
15426;DHT22;7812;50.072;7.036;2023-02-03T11:04:04;8.80;99.90
15426;DHT22;7812;50.072;7.036;2023-02-03T11:06:31;8.80;99.90
15426;DHT22;7812;50.072;7.036;2023-02-03T11:08:57;8.70;99.90
15426;DHT22;7812;50.072;7.036;2023-02-03T11:11:31;8.70;99.90
15426;DHT22;7812;50.072;7.036;2023-02-03T11:16:28;8.60;99.90
15426;DHT22;7812;50.072;7.036;2023-02-03T11:18:58;8.60;99.90
15426;DHT22;7812;50.072;7.036;2023-02-03T11:24:19;8.50;99.90
15426;DHT22;7812;50.072;7.036;2023-02-03T11:27:08;8.50;99.90
15426;DHT22;7812;50.072;7.036;2023-02-03T11:29:36;8.50;99.90
15426;DHT22;7812;50.072;7.036;2023-02-03T11:32:12;8.50;99.90
15426;DHT22;7812;50.072;7.036;2023-02-03T11:34:46;8.50;99.90
15426;DHT22;7812;50.072;7.036;2023-02-03T11:42:34;8.40;99.90
15426;DHT22;7812;50.072;7.036;2023-02-03T12:15:56;8.40;99.90
15426;DHT22;7812;50.072;7.036;2023-02-03T12:24:22;8.40;99.90
15426;DHT22;7812;50.072;7.036;2023-02-03T12:29:38;8.50;99.90
15426;DHT22;7812;50.072;7.036;2023-02-03T12:32:25;8.60;99.90
15426;DHT22;7812;50.072;7.036;2023-02-03T12:34:58;8.70;99.90
15426;DHT22;7812;50.072;7.036;2023-02-03T12:40:03;8.70;99.90
15426;DHT22;7812;50.072;7.036;2023-02-03T12:42:36;8.70;99.90
15426;DHT22;7812;50.072;7.036;2023-02-03T12:45:19;8.70;99.90
15426;DHT22;7812;50.072;7.036;2023-02-03T12:48:01;8.60;99.90
15426;DHT22;7812;50.072;7.036;2023-02-03T12:50:43;8.60;99.90
15426;DHT22;7812;50.072;7.036;2023-02-03T12:53:16;8.50;99.90
15426;DHT22;7812;50.072;7.036;2023-02-03T12:58:23;8.50;99.90
15426;DHT22;7812;50.072;7.036;2023-02-03T13:11:47;8.60;99.90
15426;DHT22;7812;50.072;7.036;2023-02-03T13:14:30;8.70;99.90
15426;DHT22;7812;50.072;7.036;2023-02-03T13:19:45;8.70;99.90
15426;DHT22;7812;50.072;7.036;2023-02-03T13:22:20;8.70;99.90
15426;DHT22;7812;50.072;7.036;2023-02-03T13:25:13;8.70;99.90
15426;DHT22;7812;50.072;7.036;2023-02-03T13:27:45;8.70;99.90
15426;DHT22;7812;50.072;7.036;2023-02-03T13:30:29;8.70;99.90
15426;DHT22;7812;50.072;7.036;2023-02-03T13:38:09;8.80;99.90
15426;DHT22;7812;50.072;7.036;2023-02-03T13:40:52;8.80;99.90
15426;DHT22;7812;50.072;7.036;2023-02-03T13:43:27;8.80;99.90
15426;DHT22;7812;50.072;7.036;2023-02-03T13:45:54;8.80;99.90
15426;DHT22;7812;50.072;7.036;2023-02-03T13:48:26;8.90;99.90
15426;DHT22;7812;50.072;7.036;2023-02-03T13:51:14;8.90;99.90
15426;DHT22;7812;50.072;7.036;2023-02-03T13:53:43;9.00;99.90
15426;DHT22;7812;50.072;7.036;2023-02-03T13:56:26;9.00;99.90
15426;DHT22;7812;50.072;7.036;2023-02-03T14:01:40;9.00;99.90
15426;DHT22;7812;50.072;7.036;2023-02-03T14:04:49;9.10;99.90
15426;DHT22;7812;50.072;7.036;2023-02-03T14:06:56;9.10;99.90
15426;DHT22;7812;50.072;7.036;2023-02-03T14:12:30;9.00;99.90
15426;DHT22;7812;50.072;7.036;2023-02-03T14:14:59;9.00;99.90
15426;DHT22;7812;50.072;7.036;2023-02-03T14:20:01;8.90;99.90
15426;DHT22;7812;50.072;7.036;2023-02-03T14:22:28;8.90;99.90
15426;DHT22;7812;50.072;7.036;2023-02-03T14:24:56;8.90;99.90
15426;DHT22;7812;50.072;7.036;2023-02-03T14:27:27;8.90;99.90
15426;DHT22;7812;50.072;7.036;2023-02-03T14:35:18;8.90;99.90
15426;DHT22;7812;50.072;7.036;2023-02-03T14:38:16;8.90;99.90
15426;DHT22;7812;50.072;7.036;2023-02-03T14:40:56;8.90;99.90
15426;DHT22;7812;50.072;7.036;2023-02-03T14:43:54;8.80;99.90
15426;DHT22;7812;50.072;7.036;2023-02-03T14:49:47;8.70;99.90
15426;DHT22;7812;50.072;7.036;2023-02-03T14:52:23;8.70;99.90
15426;DHT22;7812;50.072;7.036;2023-02-03T14:55:13;8.70;99.90
15426;DHT22;7812;50.072;7.036;2023-02-03T14:57:47;8.70;99.90
15426;DHT22;7812;50.072;7.036;2023-02-03T15:05:43;8.60;99.90
15426;DHT22;7812;50.072;7.036;2023-02-03T15:10:54;8.60;99.90
15426;DHT22;7812;50.072;7.036;2023-02-03T15:13:28;8.60;99.90
15426;DHT22;7812;50.072;7.036;2023-02-03T15:15:57;8.70;99.90
15426;DHT22;7812;50.072;7.036;2023-02-03T15:18:30;8.70;99.90
15426;DHT22;7812;50.072;7.036;2023-02-03T15:20:56;8.70;99.90
15426;DHT22;7812;50.072;7.036;2023-02-03T15:25:58;8.80;99.90
15426;DHT22;7812;50.072;7.036;2023-02-03T15:28:26;8.80;99.90
15426;DHT22;7812;50.072;7.036;2023-02-03T15:31:00;8.80;99.90
15426;DHT22;7812;50.072;7.036;2023-02-03T15:33:29;8.80;99.90
15426;DHT22;7812;50.072;7.036;2023-02-03T15:35:58;8.80;99.90
15426;DHT22;7812;50.072;7.036;2023-02-03T15:38:30;8.80;99.90
15426;DHT22;7812;50.072;7.036;2023-02-03T15:40:57;8.80;99.90
15426;DHT22;7812;50.072;7.036;2023-02-03T15:43:39;8.80;99.90
15426;DHT22;7812;50.072;7.036;2023-02-03T15:48:50;8.80;99.90
15426;DHT22;7812;50.072;7.036;2023-02-03T15:51:36;8.80;99.90
15426;DHT22;7812;50.072;7.036;2023-02-03T15:57:14;8.70;99.90
15426;DHT22;7812;50.072;7.036;2023-02-03T15:59:43;8.70;99.90
15426;DHT22;7812;50.072;7.036;2023-02-03T16:02:34;8.70;99.90
15426;DHT22;7812;50.072;7.036;2023-02-03T16:07:50;8.70;99.90
15426;DHT22;7812;50.072;7.036;2023-02-03T16:10:45;8.70;99.90
15426;DHT22;7812;50.072;7.036;2023-02-03T16:13:23;8.70;99.90
15426;DHT22;7812;50.072;7.036;2023-02-03T16:16:20;8.70;99.90
15426;DHT22;7812;50.072;7.036;2023-02-03T16:18:57;8.70;99.90
15426;DHT22;7812;50.072;7.036;2023-02-03T16:23:57;8.70;99.90
15426;DHT22;7812;50.072;7.036;2023-02-03T16:26:25;8.70;99.90
15426;DHT22;7812;50.072;7.036;2023-02-03T16:31:48;8.70;99.90
15426;DHT22;7812;50.072;7.036;2023-02-03T16:34:33;8.70;99.90
15426;DHT22;7812;50.072;7.036;2023-02-03T16:37:43;8.70;99.90
15426;DHT22;7812;50.072;7.036;2023-02-03T16:40:27;8.70;99.90
15426;DHT22;7812;50.072;7.036;2023-02-03T16:43:13;8.60;99.90
15426;DHT22;7812;50.072;7.036;2023-02-03T16:45:58;8.60;99.90
15426;DHT22;7812;50.072;7.036;2023-02-03T16:48:43;8.60;99.90
15426;DHT22;7812;50.072;7.036;2023-02-03T16:51:39;8.60;99.90
15426;DHT22;7812;50.072;7.036;2023-02-03T16:54:09;8.50;99.90
15426;DHT22;7812;50.072;7.036;2023-02-03T16:56:35;8.50;99.90
15426;DHT22;7812;50.072;7.036;2023-02-03T16:59:00;8.40;99.90
15426;DHT22;7812;50.072;7.036;2023-02-03T17:01:26;8.40;99.90
15426;DHT22;7812;50.072;7.036;2023-02-03T17:03:52;8.50;99.90
15426;DHT22;7812;50.072;7.036;2023-02-03T17:06:17;8.50;99.90
15426;DHT22;7812;50.072;7.036;2023-02-03T17:08:44;8.60;99.90
15426;DHT22;7812;50.072;7.036;2023-02-03T17:11:18;8.60;99.90
15426;DHT22;7812;50.072;7.036;2023-02-03T17:13:46;8.70;99.90
15426;DHT22;7812;50.072;7.036;2023-02-03T17:16:14;8.60;99.90
15426;DHT22;7812;50.072;7.036;2023-02-03T17:18:41;8.60;99.90
15426;DHT22;7812;50.072;7.036;2023-02-03T17:21:11;8.60;99.90
15426;DHT22;7812;50.072;7.036;2023-02-03T17:23:37;8.70;99.90
15426;DHT22;7812;50.072;7.036;2023-02-03T17:26:04;8.70;99.90
15426;DHT22;7812;50.072;7.036;2023-02-03T17:28:29;8.60;99.90
15426;DHT22;7812;50.072;7.036;2023-02-03T17:30:57;8.60;99.90
15426;DHT22;7812;50.072;7.036;2023-02-03T17:33:23;8.70;99.90
15426;DHT22;7812;50.072;7.036;2023-02-03T17:36:08;8.70;99.90
15426;DHT22;7812;50.072;7.036;2023-02-03T17:41:16;8.70;99.90
15426;DHT22;7812;50.072;7.036;2023-02-03T17:43:42;8.70;99.90
15426;DHT22;7812;50.072;7.036;2023-02-03T17:46:10;8.80;99.90
15426;DHT22;7812;50.072;7.036;2023-02-03T17:48:36;8.80;99.90
15426;DHT22;7812;50.072;7.036;2023-02-03T17:51:12;8.80;99.90
15426;DHT22;7812;50.072;7.036;2023-02-03T17:53:39;8.80;99.90
15426;DHT22;7812;50.072;7.036;2023-02-03T17:58:34;8.80;99.90
15426;DHT22;7812;50.072;7.036;2023-02-03T18:01:05;8.70;99.90
15426;DHT22;7812;50.072;7.036;2023-02-03T18:03:30;8.70;99.90
15426;DHT22;7812;50.072;7.036;2023-02-03T18:05:56;8.70;99.90
15426;DHT22;7812;50.072;7.036;2023-02-03T18:08:22;8.70;99.90
15426;DHT22;7812;50.072;7.036;2023-02-03T18:10:47;8.70;99.90
15426;DHT22;7812;50.072;7.036;2023-02-03T18:13:13;8.80;99.90
15426;DHT22;7812;50.072;7.036;2023-02-03T18:15:39;8.80;99.90
15426;DHT22;7812;50.072;7.036;2023-02-03T18:18:04;8.80;99.90
15426;DHT22;7812;50.072;7.036;2023-02-03T18:20:30;8.90;99.90
15426;DHT22;7812;50.072;7.036;2023-02-03T18:22:56;8.90;99.90
15426;DHT22;7812;50.072;7.036;2023-02-03T18:25:21;9.00;99.90
15426;DHT22;7812;50.072;7.036;2023-02-03T18:27:49;9.00;99.90
15426;DHT22;7812;50.072;7.036;2023-02-03T18:30:15;9.00;99.90
15426;DHT22;7812;50.072;7.036;2023-02-03T18:32:42;9.00;99.90
15426;DHT22;7812;50.072;7.036;2023-02-03T18:35:08;9.00;99.90
15426;DHT22;7812;50.072;7.036;2023-02-03T18:37:38;9.00;99.90
15426;DHT22;7812;50.072;7.036;2023-02-03T18:40:04;9.00;99.90
15426;DHT22;7812;50.072;7.036;2023-02-03T18:42:30;9.00;99.90
15426;DHT22;7812;50.072;7.036;2023-02-03T18:44:56;9.00;99.90
15426;DHT22;7812;50.072;7.036;2023-02-03T18:47:22;9.00;99.90
15426;DHT22;7812;50.072;7.036;2023-02-03T18:49:48;9.00;99.90
15426;DHT22;7812;50.072;7.036;2023-02-03T18:52:13;9.10;99.90
15426;DHT22;7812;50.072;7.036;2023-02-03T18:54:39;9.10;99.90
15426;DHT22;7812;50.072;7.036;2023-02-03T18:57:05;9.10;99.90
15426;DHT22;7812;50.072;7.036;2023-02-03T18:59:31;9.10;99.90
15426;DHT22;7812;50.072;7.036;2023-02-03T19:01:56;9.10;99.90
15426;DHT22;7812;50.072;7.036;2023-02-03T19:04:22;9.10;99.90
15426;DHT22;7812;50.072;7.036;2023-02-03T19:06:47;9.10;99.90
15426;DHT22;7812;50.072;7.036;2023-02-03T19:09:14;9.10;99.90
15426;DHT22;7812;50.072;7.036;2023-02-03T19:11:42;9.00;99.90
15426;DHT22;7812;50.072;7.036;2023-02-03T19:14:11;9.10;99.90
15426;DHT22;7812;50.072;7.036;2023-02-03T19:16:37;9.20;99.90
15426;DHT22;7812;50.072;7.036;2023-02-03T19:19:04;9.10;99.90
15426;DHT22;7812;50.072;7.036;2023-02-03T19:21:30;9.10;99.90
15426;DHT22;7812;50.072;7.036;2023-02-03T19:23:56;9.10;99.90
15426;DHT22;7812;50.072;7.036;2023-02-03T19:26:22;9.20;99.90
15426;DHT22;7812;50.072;7.036;2023-02-03T19:28:49;9.20;99.90
15426;DHT22;7812;50.072;7.036;2023-02-03T19:31:16;9.20;99.90
15426;DHT22;7812;50.072;7.036;2023-02-03T19:33:42;9.20;99.90
15426;DHT22;7812;50.072;7.036;2023-02-03T19:36:08;9.10;99.90
15426;DHT22;7812;50.072;7.036;2023-02-03T19:38:35;9.10;99.90
15426;DHT22;7812;50.072;7.036;2023-02-03T19:41:01;9.00;99.90
15426;DHT22;7812;50.072;7.036;2023-02-03T19:43:27;9.10;99.90
15426;DHT22;7812;50.072;7.036;2023-02-03T19:45:53;9.10;99.90
15426;DHT22;7812;50.072;7.036;2023-02-03T19:48:18;9.10;99.90
15426;DHT22;7812;50.072;7.036;2023-02-03T19:50:46;9.10;99.90